Agata, Russia
Current Conditions -  °F | °C
As of 3:00 PM on Monday 26 Jan 2015 (Local Time) from USNN Reporting Station
Light Snow Light Snow  
Wind Chill: -20°   Ceiling: Unl
Heat Index:   Visibility: 1.6mi
Dew Point: -6°   Wind: 16mph
Humidity: 78%   Direction: 210°SSW
Pressure: 30.21"   Gusts: NA
Location:  66.92°N, 93.5°E
Report Text: USNN 260800Z 21007MPS 2600 -SN BLSN SCT022 M18/M21 Q1023 NOSIGRMK QFE762 21421032
Loading
Personal Weather Stations






























Interactive Weather Map New forecast layout! Learn more

10-Day Weather Forecast

Advertisements
Track Severe Weather on mobile